createdAt,value
2023-05-05T00:01:06.789Z,9.73
2023-05-05T00:03:38.280Z,9.68
2023-05-05T00:06:06.829Z,9.63
2023-05-05T00:08:35.305Z,9.63
2023-05-05T00:11:03.448Z,9.65
2023-05-05T00:13:31.868Z,9.63
2023-05-05T00:16:00.400Z,9.69
2023-05-05T00:18:29.585Z,9.68
2023-05-05T00:20:57.913Z,9.66
2023-05-05T00:23:26.226Z,9.53
2023-05-05T00:25:54.893Z,9.34
2023-05-05T00:28:23.240Z,9.29
2023-05-05T00:30:51.461Z,9.14
2023-05-05T00:33:19.744Z,9.03
2023-05-05T00:35:48.332Z,8.92
2023-05-05T00:38:17.007Z,8.85
2023-05-05T00:40:45.149Z,8.78
2023-05-05T00:43:13.359Z,8.74
2023-05-05T00:45:44.432Z,8.73
2023-05-05T00:48:12.809Z,8.72
2023-05-05T00:50:44.479Z,8.72
2023-05-05T00:53:13.858Z,8.65
2023-05-05T00:55:42.242Z,8.60
2023-05-05T00:58:11.421Z,8.54
2023-05-05T01:00:39.659Z,8.59
2023-05-05T01:03:08.348Z,8.67
2023-05-05T01:05:55.426Z,8.73
2023-05-05T01:08:39.276Z,8.57
2023-05-05T01:11:35.494Z,8.43
2023-05-05T01:14:33.051Z,8.31
2023-05-05T01:17:09.018Z,8.29
2023-05-05T01:19:51.132Z,8.30
2023-05-05T01:22:24.926Z,8.37
2023-05-05T01:25:08.867Z,8.37
2023-05-05T01:28:04.540Z,8.20
2023-05-05T01:30:44.992Z,8.05
2023-05-05T01:33:19.093Z,7.97
2023-05-05T01:35:53.950Z,7.92
2023-05-05T01:38:26.866Z,7.90
2023-05-05T01:41:03.909Z,7.88
2023-05-05T01:43:35.930Z,7.93
2023-05-05T01:46:06.839Z,7.92
2023-05-05T01:48:37.157Z,7.86
2023-05-05T01:51:06.609Z,7.79
2023-05-05T01:53:36.515Z,7.71
2023-05-05T01:56:06.470Z,7.79
2023-05-05T01:58:36.264Z,7.90
2023-05-05T02:01:06.282Z,7.98
2023-05-05T02:03:37.840Z,7.91
2023-05-05T02:06:08.464Z,7.95
2023-05-05T02:08:38.162Z,8.00
2023-05-05T02:11:08.871Z,8.02
2023-05-05T02:13:42.748Z,7.99
2023-05-05T02:16:18.807Z,7.81
2023-05-05T02:18:47.632Z,7.75
2023-05-05T02:21:18.164Z,7.78
2023-05-05T02:23:52.020Z,7.67
2023-05-05T02:26:23.239Z,7.53
2023-05-05T02:29:10.092Z,7.42
2023-05-05T02:31:51.006Z,7.47
2023-05-05T02:34:28.226Z,7.48
2023-05-05T02:37:00.973Z,7.38
2023-05-05T02:39:40.835Z,7.48
2023-05-05T02:42:16.573Z,7.48
2023-05-05T02:44:46.548Z,7.50
2023-05-05T02:47:15.088Z,7.43
2023-05-05T02:49:43.842Z,7.27
2023-05-05T02:52:12.018Z,7.21
2023-05-05T02:54:40.827Z,7.26
2023-05-05T02:57:16.544Z,7.29
2023-05-05T02:59:56.713Z,7.27
2023-05-05T03:02:44.897Z,7.27
2023-05-05T03:05:19.549Z,7.33
2023-05-05T03:08:02.317Z,7.41
2023-05-05T03:10:47.070Z,7.42
2023-05-05T03:13:18.923Z,7.49
2023-05-05T03:15:49.698Z,7.54
2023-05-05T03:18:22.655Z,7.58
2023-05-05T03:20:57.384Z,7.61
2023-05-05T03:23:26.365Z,7.58
2023-05-05T03:25:58.016Z,7.45
2023-05-05T03:28:32.753Z,7.47
2023-05-05T03:31:03.900Z,7.55
2023-05-05T03:33:32.430Z,7.57
2023-05-05T03:36:01.699Z,7.63
2023-05-05T03:38:30.034Z,7.71
2023-05-05T03:41:03.264Z,7.74
2023-05-05T03:43:32.223Z,7.74
2023-05-05T03:46:00.693Z,7.75
2023-05-05T03:48:29.447Z,7.76
2023-05-05T03:50:57.931Z,7.76
2023-05-05T03:53:26.734Z,7.75
2023-05-05T03:55:55.892Z,7.78
2023-05-05T03:58:24.272Z,7.82
2023-05-05T04:00:52.878Z,7.88
2023-05-05T04:03:21.804Z,7.91
2023-05-05T04:05:51.207Z,7.93
2023-05-05T04:08:19.862Z,8.03
2023-05-05T04:10:48.214Z,8.14
2023-05-05T04:13:16.980Z,8.20
2023-05-05T04:15:46.589Z,8.25
2023-05-05T04:18:15.670Z,8.24
2023-05-05T04:20:44.635Z,8.21
2023-05-05T04:23:13.207Z,8.28
2023-05-05T04:25:41.749Z,8.36
2023-05-05T04:28:10.984Z,8.45
2023-05-05T04:30:39.660Z,8.55
2023-05-05T04:33:08.187Z,8.66
2023-05-05T04:35:36.524Z,8.78
2023-05-05T04:38:04.992Z,8.81
2023-05-05T04:40:33.422Z,8.82
2023-05-05T04:43:02.162Z,8.85
2023-05-05T04:45:30.698Z,8.95
2023-05-05T04:47:59.294Z,9.06
2023-05-05T04:50:27.733Z,9.12
2023-05-05T04:52:56.580Z,9.23
2023-05-05T04:55:25.629Z,9.46
2023-05-05T04:57:54.059Z,9.77
2023-05-05T05:00:23.519Z,10.05
2023-05-05T05:02:52.727Z,10.38
2023-05-05T05:05:21.677Z,10.71
2023-05-05T05:07:50.115Z,10.86
2023-05-05T05:10:19.229Z,11.23
2023-05-05T05:12:48.755Z,11.53
2023-05-05T05:15:17.088Z,11.68
2023-05-05T05:17:45.825Z,11.76
2023-05-05T05:20:14.265Z,11.89
2023-05-05T05:22:42.504Z,12.05
2023-05-05T05:25:14.184Z,12.37
2023-05-05T05:27:43.034Z,12.73
2023-05-05T05:30:11.893Z,13.22
2023-05-05T05:32:40.209Z,13.55
2023-05-05T05:35:09.167Z,13.65
2023-05-05T05:37:37.672Z,13.66
2023-05-05T05:40:07.530Z,13.72
2023-05-05T05:42:36.245Z,13.98
2023-05-05T05:45:06.414Z,14.43
2023-05-05T05:47:35.806Z,14.85
2023-05-05T05:50:05.238Z,15.22
2023-05-05T05:52:33.908Z,15.35
2023-05-05T05:55:03.017Z,15.65
2023-05-05T05:57:31.179Z,15.38
2023-05-05T06:00:01.793Z,15.29
2023-05-05T06:02:40.088Z,15.53
2023-05-05T06:05:10.668Z,15.73
2023-05-05T06:07:39.024Z,15.84
2023-05-05T06:10:25.872Z,15.97
2023-05-05T06:12:58.883Z,16.13
2023-05-05T06:15:27.690Z,16.31
2023-05-05T06:17:56.510Z,16.55
2023-05-05T06:20:25.149Z,16.36
2023-05-05T06:22:53.439Z,16.11
2023-05-05T06:25:22.634Z,16.06
2023-05-05T06:27:51.721Z,16.40
2023-05-05T06:30:20.103Z,17.09
2023-05-05T06:32:48.271Z,17.07
2023-05-05T06:35:16.575Z,16.82
2023-05-05T06:37:44.851Z,16.60
2023-05-05T06:40:13.255Z,16.38
2023-05-05T06:42:41.840Z,16.39
2023-05-05T06:45:12.841Z,16.38
2023-05-05T06:55:19.208Z,16.61
2023-05-05T06:57:47.428Z,16.55
2023-05-05T07:00:17.369Z,16.81
2023-05-05T07:02:47.725Z,16.70
2023-05-05T07:05:17.009Z,16.75
2023-05-05T07:07:53.183Z,16.59
2023-05-05T07:10:23.185Z,16.46
2023-05-05T07:12:52.600Z,16.39
2023-05-05T07:15:28.564Z,16.32
2023-05-05T07:17:58.195Z,16.33
2023-05-05T07:20:26.843Z,16.14
2023-05-05T07:22:55.499Z,16.34
2023-05-05T07:25:23.759Z,16.48
2023-05-05T07:27:51.976Z,16.74
2023-05-05T07:30:21.026Z,16.56
2023-05-05T07:32:50.008Z,16.58
2023-05-05T07:35:18.518Z,16.22
2023-05-05T07:37:47.186Z,16.26
2023-05-05T07:40:16.588Z,16.58
2023-05-05T07:42:45.032Z,16.62
2023-05-05T07:45:13.451Z,16.96
2023-05-05T07:47:42.015Z,17.25
2023-05-05T07:50:11.144Z,17.34
2023-05-05T07:55:10.933Z,17.44
2023-05-05T07:57:39.732Z,17.56
2023-05-05T08:00:09.779Z,17.54
2023-05-05T08:02:41.652Z,17.55
2023-05-05T08:05:10.268Z,17.61
2023-05-05T08:07:41.785Z,17.25
2023-05-05T08:10:12.229Z,17.17
2023-05-05T08:12:40.700Z,17.20
2023-05-05T08:15:10.190Z,17.03
2023-05-05T08:17:50.410Z,17.14
2023-05-05T08:20:20.593Z,17.29
2023-05-05T08:22:50.041Z,17.43
2023-05-05T08:25:18.271Z,17.51
2023-05-05T08:27:46.915Z,17.50
2023-05-05T08:30:17.277Z,17.37
2023-05-05T08:32:45.792Z,17.46
2023-05-05T08:35:14.134Z,17.54
2023-05-05T08:37:42.703Z,17.36
2023-05-05T08:40:15.068Z,17.20
2023-05-05T08:42:46.049Z,17.22
2023-05-05T08:45:14.357Z,17.10
2023-05-05T08:47:43.535Z,16.88
2023-05-05T08:50:12.613Z,16.74
2023-05-05T08:52:46.083Z,16.68
2023-05-05T08:55:28.498Z,16.73
2023-05-05T08:57:58.410Z,17.18
2023-05-05T09:00:27.901Z,17.68
2023-05-05T09:03:00.329Z,18.17
2023-05-05T09:05:28.856Z,18.62
2023-05-05T09:07:57.713Z,19.03
2023-05-05T09:10:29.880Z,19.64
2023-05-05T09:12:58.188Z,20.19
2023-05-05T09:15:28.454Z,20.29
2023-05-05T09:18:01.679Z,19.69
2023-05-05T09:20:38.265Z,19.01
2023-05-05T09:23:10.973Z,18.69
2023-05-05T09:25:40.046Z,18.46
2023-05-05T09:28:13.053Z,18.22
2023-05-05T09:30:43.846Z,18.15
2023-05-05T09:33:13.434Z,18.21
2023-05-05T09:35:56.062Z,18.31
2023-05-05T09:38:25.197Z,18.43
2023-05-05T09:40:54.382Z,18.41
2023-05-05T09:43:23.984Z,18.60
2023-05-05T09:45:52.320Z,18.87
2023-05-05T09:48:32.317Z,18.88
2023-05-05T09:51:00.748Z,18.85
2023-05-05T09:53:39.942Z,19.11
2023-05-05T09:56:09.195Z,18.87
2023-05-05T09:58:37.867Z,18.59
2023-05-05T10:01:06.220Z,17.94
2023-05-05T10:03:51.157Z,17.85
2023-05-05T10:06:19.391Z,17.90
2023-05-05T10:09:01.635Z,18.10
2023-05-05T10:11:30.443Z,18.41
2023-05-05T10:13:58.903Z,18.63
2023-05-05T10:16:30.372Z,18.75
2023-05-05T10:19:03.125Z,18.85
2023-05-05T10:21:42.038Z,18.83
2023-05-05T10:24:16.946Z,19.05
2023-05-05T10:26:46.841Z,18.94
2023-05-05T10:29:29.261Z,19.20
2023-05-05T10:32:27.164Z,18.98
2023-05-05T10:34:59.832Z,18.80
2023-05-05T10:37:29.708Z,18.96
2023-05-05T10:39:58.907Z,18.87
2023-05-05T10:42:28.036Z,18.25
2023-05-05T10:44:56.329Z,18.42
2023-05-05T10:47:27.441Z,18.51
2023-05-05T10:50:29.697Z,18.82
2023-05-05T10:53:11.180Z,19.07
2023-05-05T10:55:52.472Z,19.21
2023-05-05T10:58:46.960Z,19.41
2023-05-05T11:01:36.561Z,19.54
2023-05-05T11:04:24.246Z,19.31
2023-05-05T11:07:14.703Z,18.63
2023-05-05T11:10:03.021Z,18.67
2023-05-05T11:12:34.079Z,18.63
2023-05-05T11:15:28.678Z,18.52
2023-05-05T11:18:05.892Z,18.77
2023-05-05T11:20:35.614Z,18.88
2023-05-05T11:23:03.788Z,19.02
2023-05-05T11:25:35.479Z,18.92
2023-05-05T11:28:08.536Z,19.01
2023-05-05T11:30:57.760Z,19.26
2023-05-05T11:33:32.021Z,19.36
2023-05-05T11:36:06.459Z,19.46
2023-05-05T11:38:52.680Z,19.37
2023-05-05T11:41:40.057Z,19.45
2023-05-05T11:44:19.148Z,19.70
2023-05-05T11:46:53.245Z,20.02
2023-05-05T11:49:34.639Z,20.13
2023-05-05T11:52:05.345Z,20.29
2023-05-05T11:54:36.328Z,20.40
2023-05-05T11:57:07.277Z,20.41
2023-05-05T11:59:37.672Z,20.42
2023-05-05T12:02:05.972Z,20.25
2023-05-05T12:04:40.215Z,20.36
2023-05-05T12:07:15.491Z,20.56
2023-05-05T12:09:45.849Z,20.56
2023-05-05T12:12:14.740Z,20.53
2023-05-05T12:14:46.292Z,20.36
2023-05-05T12:17:14.512Z,20.54
2023-05-05T12:19:53.535Z,20.58
2023-05-05T12:22:26.514Z,20.70
2023-05-05T12:25:04.238Z,20.67
2023-05-05T12:27:32.912Z,20.27
2023-05-05T12:30:13.340Z,20.04
2023-05-05T12:32:41.862Z,19.86
2023-05-05T12:35:10.932Z,19.67
2023-05-05T12:37:39.829Z,19.36
2023-05-05T12:40:28.326Z,19.26
2023-05-05T12:42:56.861Z,19.09
2023-05-05T12:45:25.213Z,18.88
2023-05-05T12:47:53.487Z,18.88
2023-05-05T12:50:31.954Z,18.97
2023-05-05T12:53:00.089Z,19.14
2023-05-05T12:55:40.094Z,19.31
2023-05-05T12:58:08.342Z,19.47
2023-05-05T13:00:36.821Z,19.66
2023-05-05T13:03:06.495Z,19.58
2023-05-05T13:05:41.202Z,19.75
2023-05-05T13:08:09.432Z,19.88
2023-05-05T13:10:38.072Z,19.77
2023-05-05T13:13:06.146Z,19.74
2023-05-05T13:15:34.756Z,19.92
2023-05-05T13:18:03.300Z,19.96
2023-05-05T13:20:31.753Z,20.13
2023-05-05T13:22:59.949Z,20.08
2023-05-05T13:25:28.422Z,20.15
2023-05-05T13:27:56.752Z,20.05
2023-05-05T13:30:24.968Z,20.23
2023-05-05T13:32:53.157Z,20.32
2023-05-05T13:35:21.669Z,20.33
2023-05-05T13:37:50.001Z,20.39
2023-05-05T13:40:18.444Z,20.32
2023-05-05T13:42:47.075Z,20.14
2023-05-05T13:45:17.455Z,20.11
2023-05-05T13:47:45.852Z,20.08
2023-05-05T13:50:14.475Z,20.25
2023-05-05T13:52:42.699Z,20.37
2023-05-05T13:55:11.249Z,20.43
2023-05-05T13:57:39.510Z,20.41
2023-05-05T14:00:09.185Z,20.55
2023-05-05T14:02:37.437Z,20.45
2023-05-05T14:05:06.459Z,20.37
2023-05-05T14:07:34.602Z,20.41
2023-05-05T14:10:03.073Z,20.19
2023-05-05T14:12:31.275Z,20.32
2023-05-05T14:14:59.423Z,20.39
2023-05-05T14:17:27.559Z,20.19
2023-05-05T14:19:55.770Z,20.10
2023-05-05T14:22:24.442Z,20.06
2023-05-05T14:24:52.719Z,20.08
2023-05-05T14:27:20.815Z,20.14
2023-05-05T14:29:49.109Z,20.14
2023-05-05T14:32:17.473Z,20.10
2023-05-05T14:34:46.719Z,19.94
2023-05-05T14:37:16.500Z,19.88
2023-05-05T14:39:44.641Z,19.81
2023-05-05T14:42:12.881Z,19.79
2023-05-05T14:44:41.519Z,19.84
2023-05-05T14:47:09.685Z,19.78
2023-05-05T14:49:38.103Z,19.71
2023-05-05T14:52:06.224Z,19.56
2023-05-05T14:54:34.372Z,19.51
2023-05-05T14:57:02.806Z,19.34
2023-05-05T14:59:31.037Z,19.21
2023-05-05T15:01:59.396Z,19.30
2023-05-05T15:04:27.846Z,19.34
2023-05-05T15:06:56.656Z,19.24
2023-05-05T15:09:25.098Z,19.22
2023-05-05T15:11:53.285Z,19.18
2023-05-05T15:14:21.302Z,19.19
2023-05-05T15:16:49.420Z,19.25
2023-05-05T15:19:17.524Z,19.23
2023-05-05T15:21:45.564Z,19.21
2023-05-05T15:24:13.597Z,19.15
2023-05-05T15:26:41.724Z,19.25
2023-05-05T15:29:10.104Z,19.28
2023-05-05T15:31:38.258Z,19.23
2023-05-05T15:34:06.463Z,19.03
2023-05-05T15:36:34.805Z,18.98
2023-05-05T15:39:03.026Z,18.96
2023-05-05T15:41:34.498Z,19.00
2023-05-05T15:44:04.528Z,19.00
2023-05-05T15:46:35.646Z,19.04
2023-05-05T15:49:04.091Z,19.03
2023-05-05T15:51:32.376Z,19.04
2023-05-05T15:54:00.665Z,18.96
2023-05-05T15:56:29.448Z,18.88
2023-05-05T15:58:57.640Z,18.73
2023-05-05T16:01:25.960Z,18.70
2023-05-05T16:03:54.116Z,18.62
2023-05-05T16:06:22.371Z,18.56
2023-05-05T16:08:51.750Z,18.39
2023-05-05T16:11:22.424Z,18.32
2023-05-05T16:13:50.895Z,18.21
2023-05-05T16:16:19.300Z,18.12
2023-05-05T16:18:48.381Z,17.98
2023-05-05T16:21:16.884Z,17.85
2023-05-05T16:23:45.034Z,17.78
2023-05-05T16:26:13.408Z,17.68
2023-05-05T16:28:41.434Z,17.56
2023-05-05T16:31:10.927Z,17.52
2023-05-05T16:33:41.256Z,17.41
2023-05-05T16:36:13.087Z,17.34
2023-05-05T16:38:41.864Z,17.27
2023-05-05T16:41:11.452Z,17.22
2023-05-05T16:43:39.757Z,17.18
2023-05-05T16:46:08.008Z,17.13
2023-05-05T16:48:36.139Z,17.07
2023-05-05T16:51:04.159Z,17.02
2023-05-05T16:53:32.364Z,16.96
2023-05-05T16:56:00.730Z,16.91
2023-05-05T16:58:28.985Z,16.88
2023-05-05T17:00:57.293Z,16.85
2023-05-05T17:03:25.371Z,16.79
2023-05-05T17:05:53.908Z,16.75
2023-05-05T17:08:22.221Z,16.70
2023-05-05T17:10:50.568Z,16.67
2023-05-05T17:13:19.378Z,16.61
2023-05-05T17:15:47.745Z,16.52
2023-05-05T17:18:16.271Z,16.45
2023-05-05T17:20:44.539Z,16.41
2023-05-05T17:23:12.505Z,16.38
2023-05-05T17:25:40.630Z,16.34
2023-05-05T17:28:08.964Z,16.27
2023-05-05T17:30:37.870Z,16.23
2023-05-05T17:33:06.328Z,16.15
2023-05-05T17:35:34.760Z,16.11
2023-05-05T17:38:03.101Z,16.04
2023-05-05T17:40:31.275Z,15.97
2023-05-05T17:42:59.493Z,15.85
2023-05-05T17:45:27.699Z,15.75
2023-05-05T17:47:56.079Z,15.66
2023-05-05T17:50:24.711Z,15.55
2023-05-05T17:52:52.873Z,15.45
2023-05-05T17:55:21.165Z,15.42
2023-05-05T17:57:49.364Z,15.37
2023-05-05T18:00:18.477Z,15.34
2023-05-05T18:02:46.997Z,15.32
2023-05-05T18:05:15.495Z,15.28
2023-05-05T18:07:43.796Z,15.18
2023-05-05T18:10:12.249Z,15.06
2023-05-05T18:12:40.516Z,15.05
2023-05-05T18:15:09.621Z,14.96
2023-05-05T18:17:38.089Z,14.94
2023-05-05T18:20:07.434Z,14.94
2023-05-05T18:22:36.028Z,14.81
2023-05-05T18:25:07.160Z,14.74
2023-05-05T18:27:36.177Z,14.66
2023-05-05T18:30:05.243Z,14.57
2023-05-05T18:32:34.017Z,14.54
2023-05-05T18:35:02.112Z,14.37
2023-05-05T18:37:30.239Z,14.29
2023-05-05T18:39:58.358Z,14.16
2023-05-05T18:42:27.156Z,14.04
2023-05-05T18:44:55.455Z,13.84
2023-05-05T18:47:23.732Z,13.75
2023-05-05T18:49:51.834Z,13.67
2023-05-05T18:52:20.080Z,13.63
2023-05-05T18:54:48.642Z,13.57
2023-05-05T18:57:16.957Z,13.59
2023-05-05T18:59:45.412Z,13.66
2023-05-05T19:02:13.617Z,13.66
2023-05-05T19:04:42.335Z,13.63
2023-05-05T19:07:14.504Z,13.61
2023-05-05T19:09:49.218Z,13.56
2023-05-05T19:12:17.458Z,13.46
2023-05-05T19:14:45.619Z,13.33
2023-05-05T19:17:13.724Z,13.24
2023-05-05T19:19:41.864Z,13.28
2023-05-05T19:22:10.001Z,13.24
2023-05-05T19:24:38.009Z,13.17
2023-05-05T19:27:08.359Z,13.19
2023-05-05T19:29:36.549Z,13.15
2023-05-05T19:32:05.173Z,13.06
2023-05-05T19:34:33.592Z,13.06
2023-05-05T19:37:01.696Z,13.03
2023-05-05T19:39:29.837Z,12.96
2023-05-05T19:41:58.026Z,12.84
2023-05-05T19:44:26.081Z,12.78
2023-05-05T19:46:54.406Z,12.68
2023-05-05T19:49:22.635Z,12.65
2023-05-05T19:51:52.130Z,12.64
2023-05-05T19:54:21.458Z,12.62
2023-05-05T19:56:49.969Z,12.50
2023-05-05T19:59:18.311Z,12.40
2023-05-05T20:01:46.765Z,12.31
2023-05-05T20:04:15.603Z,12.36
2023-05-05T20:06:43.796Z,12.38
2023-05-05T20:09:12.236Z,12.35
2023-05-05T20:11:40.529Z,12.34
2023-05-05T20:14:08.896Z,12.35
2023-05-05T20:16:37.409Z,12.36
2023-05-05T20:19:05.897Z,12.32
2023-05-05T20:21:35.268Z,12.28
2023-05-05T20:24:03.551Z,12.25
2023-05-05T20:26:32.152Z,12.24
2023-05-05T20:29:00.296Z,12.18
2023-05-05T20:31:28.675Z,12.18
2023-05-05T20:33:57.081Z,12.11
2023-05-05T20:36:26.847Z,12.08
2023-05-05T20:38:55.064Z,12.08
2023-05-05T20:41:23.351Z,12.05
2023-05-05T20:43:51.455Z,11.97
2023-05-05T20:46:19.599Z,11.88
2023-05-05T20:48:47.921Z,11.81
2023-05-05T20:51:16.259Z,11.83
2023-05-05T20:53:44.739Z,11.76
2023-05-05T20:56:12.941Z,11.66
2023-05-05T20:58:41.300Z,11.61
2023-05-05T21:01:09.383Z,11.56
2023-05-05T21:03:37.666Z,11.55
2023-05-05T21:06:06.123Z,11.50
2023-05-05T21:08:34.412Z,11.45
2023-05-05T21:11:03.394Z,11.37
2023-05-05T21:13:32.139Z,11.38
2023-05-05T21:16:00.367Z,11.37
2023-05-05T21:18:28.658Z,11.40
2023-05-05T21:20:56.823Z,11.38
2023-05-05T21:23:24.980Z,11.33
2023-05-05T21:25:53.105Z,11.28
2023-05-05T21:28:21.238Z,11.33
2023-05-05T21:31:10.197Z,11.39
2023-05-05T21:33:39.183Z,11.41
2023-05-05T21:36:07.613Z,11.41
2023-05-05T21:38:36.058Z,11.47
2023-05-05T21:41:04.240Z,11.53
2023-05-05T21:43:32.468Z,11.58
2023-05-05T21:46:02.853Z,11.61
2023-05-05T21:48:31.568Z,11.58
2023-05-05T21:50:59.938Z,11.56
2023-05-05T21:53:28.070Z,11.52
2023-05-05T21:55:56.304Z,11.48
2023-05-05T21:58:25.373Z,11.43
2023-05-05T22:00:54.062Z,11.43
2023-05-05T22:03:22.416Z,11.38
2023-05-05T22:05:51.275Z,11.36
2023-05-05T22:08:19.821Z,11.31
2023-05-05T22:10:48.087Z,11.27
2023-05-05T22:13:16.285Z,11.27
2023-05-05T22:15:47.099Z,11.21
2023-05-05T22:18:16.067Z,11.22
2023-05-05T22:20:44.440Z,11.17
2023-05-05T22:23:14.148Z,11.13
2023-05-05T22:25:42.412Z,11.08
2023-05-05T22:28:11.766Z,11.03
2023-05-05T22:30:40.151Z,11.00
2023-05-05T22:33:08.510Z,10.93
2023-05-05T22:35:38.093Z,10.86
2023-05-05T22:38:06.866Z,10.86
2023-05-05T22:40:36.045Z,10.83
2023-05-05T22:43:04.384Z,10.84
2023-05-05T22:45:33.608Z,10.84
2023-05-05T22:48:02.233Z,10.86
2023-05-05T22:50:30.575Z,10.83
2023-05-05T22:52:58.703Z,10.82
2023-05-05T22:55:27.542Z,10.81
2023-05-05T22:57:55.736Z,10.81
2023-05-05T23:00:24.323Z,10.83
2023-05-05T23:02:52.677Z,10.78
2023-05-05T23:05:21.390Z,10.71
2023-05-05T23:07:49.734Z,10.71
2023-05-05T23:10:18.327Z,10.67
2023-05-05T23:12:46.517Z,10.64
2023-05-05T23:15:15.102Z,10.60
2023-05-05T23:17:43.242Z,10.65
2023-05-05T23:20:13.339Z,10.59
2023-05-05T23:22:42.008Z,10.51
2023-05-05T23:25:10.908Z,10.48
2023-05-05T23:27:40.291Z,10.44
2023-05-05T23:30:09.457Z,10.40
2023-05-05T23:32:37.813Z,10.39
2023-05-05T23:35:07.034Z,10.40
2023-05-05T23:37:35.359Z,10.42
2023-05-05T23:40:04.960Z,10.42
2023-05-05T23:42:33.455Z,10.45
2023-05-05T23:45:01.616Z,10.46
2023-05-05T23:47:29.862Z,10.41
2023-05-05T23:49:58.272Z,10.34
2023-05-05T23:52:27.063Z,10.34
2023-05-05T23:54:55.242Z,10.33
2023-05-05T23:57:23.595Z,10.31
2023-05-05T23:59:51.817Z,10.31
